Time;durP1;ratioP1;P1;durP2;ratioP2;P2;SDS_P1;SDS_P2;PMS_P1;PMS_P2;Temp;Humidity;BMP_temperature;BMP_pressure;BME280_temperature;BME280_humidity;BME280_pressure;Samples;Min_cycle;Max_cycle;Signal;HPM_P1;HPM_P2
2023/02/18 00:00:27;;;;;;;5.40;0.80;;;;;;;;;;110200;1265;22110;-75
2023/02/18 00:03:14;;;;;;;9.00;1.20;;;;;;;;;;110193;1260;22216;-75
2023/02/18 00:05:41;;;;;;;5.00;1.10;;;;;;;;;;110173;1279;22140;-75
2023/02/18 00:08:08;;;;;;;5.10;0.80;;;;;;;;;;110192;1279;22137;-75
2023/02/18 00:10:40;;;;;;;8.30;1.10;;;;;;;;;;110073;1279;22078;-75
2023/02/18 00:13:07;;;;;;;6.80;1.20;;;;;;;;;;110144;1256;22143;-75
2023/02/18 00:15:34;;;;;;;6.70;1.00;;;;;;;;;;110278;1275;22125;-78
2023/02/18 00:18:02;;;;;;;5.10;1.10;;;;;;;;;;110163;1279;21950;-76
2023/02/18 00:20:29;;;;;;;4.80;1.10;;;;;;;;;;110323;1279;22128;-75
2023/02/18 00:22:55;;;;;;;5.60;1.10;;;;;;;;;;110254;1256;22404;-76
2023/02/18 00:25:22;;;;;;;5.20;0.90;;;;;;;;;;110085;1279;22147;-74
2023/02/18 00:27:49;;;;;;;7.40;1.40;;;;;;;;;;110307;1279;22143;-75
2023/02/18 00:30:16;;;;;;;6.40;1.30;;;;;;;;;;110170;1279;22151;-76
2023/02/18 00:32:44;;;;;;;5.30;1.30;;;;;;;;;;110152;1280;22150;-74
2023/02/18 00:35:11;;;;;;;6.40;1.30;;;;;;;;;;110574;1259;22121;-75
2023/02/18 00:37:39;;;;;;;4.30;1.20;;;;;;;;;;110156;1279;22232;-76
2023/02/18 00:40:08;;;;;;;7.60;1.00;;;;;;;;;;110151;1280;22769;-75
2023/02/18 00:42:36;;;;;;;5.30;0.90;;;;;;;;;;110102;1280;22414;-77
2023/02/18 00:45:04;;;;;;;6.30;1.00;;;;;;;;;;110432;1260;22159;-75
2023/02/18 00:47:32;;;;;;;4.40;0.70;;;;;;;;;;110088;1280;22871;-75
2023/02/18 00:50:01;;;;;;;3.10;0.60;;;;;;;;;;110229;1280;22118;-75
2023/02/18 00:52:28;;;;;;;5.70;0.60;;;;;;;;;;110224;1280;22087;-75
2023/02/18 00:54:57;;;;;;;4.40;0.70;;;;;;;;;;110345;1258;22086;-76
2023/02/18 00:57:25;;;;;;;3.00;0.50;;;;;;;;;;110219;1280;22188;-75
2023/02/18 00:59:53;;;;;;;2.60;0.40;;;;;;;;;;110074;1279;22130;-75
2023/02/18 01:02:20;;;;;;;2.90;0.40;;;;;;;;;;110154;1279;22320;-76
2023/02/18 01:04:49;;;;;;;3.70;0.50;;;;;;;;;;110251;1263;22095;-76
2023/02/18 01:07:19;;;;;;;4.00;0.60;;;;;;;;;;110154;1280;21971;-75
2023/02/18 01:09:46;;;;;;;3.00;0.50;;;;;;;;;;110185;1279;22873;-76
2023/02/18 01:12:14;;;;;;;1.70;0.40;;;;;;;;;;110170;1280;22324;-74
2023/02/18 01:14:41;;;;;;;3.70;0.70;;;;;;;;;;110257;1259;22156;-76
2023/02/18 01:17:09;;;;;;;30.70;2.00;;;;;;;;;;110146;1280;22767;-75
2023/02/18 01:19:36;;;;;;;5.50;0.70;;;;;;;;;;110224;1275;22124;-75
2023/02/18 01:22:05;;;;;;;3.60;0.60;;;;;;;;;;110088;1279;22120;-75
2023/02/18 01:24:32;;;;;;;3.30;0.60;;;;;;;;;;110276;1256;22904;-75
2023/02/18 01:27:01;;;;;;;2.70;0.60;;;;;;;;;;110113;1279;22139;-76
2023/02/18 01:29:28;;;;;;;5.60;1.10;;;;;;;;;;110255;1280;22139;-75
2023/02/18 01:31:57;;;;;;;5.20;0.90;;;;;;;;;;110081;1280;22264;-76
2023/02/18 01:34:27;;;;;;;6.40;0.80;;;;;;;;;;110039;1256;22242;-75
2023/02/18 01:36:56;;;;;;;5.40;0.80;;;;;;;;;;109997;1280;22946;-76
2023/02/18 01:39:25;;;;;;;2.10;0.70;;;;;;;;;;110120;1280;23326;-76
2023/02/18 01:41:54;;;;;;;5.90;0.70;;;;;;;;;;110125;1280;22100;-75
2023/02/18 01:44:24;;;;;;;3.90;1.00;;;;;;;;;;110125;1280;22113;-75
2023/02/18 01:46:54;;;;;;;4.00;0.70;;;;;;;;;;110566;1262;22188;-75
2023/02/18 01:49:27;;;;;;;3.10;0.80;;;;;;;;;;110111;1280;22828;-75
2023/02/18 01:52:03;;;;;;;2.30;0.50;;;;;;;;;;110164;1280;22363;-76
2023/02/18 01:54:33;;;;;;;3.60;0.60;;;;;;;;;;110109;1280;22143;-76
2023/02/18 01:57:34;;;;;;;3.20;0.50;;;;;;;;;;110370;1262;22992;-74
2023/02/18 02:00:06;;;;;;;3.40;0.60;;;;;;;;;;110028;1280;22120;-75
2023/02/18 02:02:44;;;;;;;1.40;0.30;;;;;;;;;;110091;1278;22138;-75
2023/02/18 02:05:14;;;;;;;2.50;0.30;;;;;;;;;;110086;1257;22175;-75
2023/02/18 02:07:44;;;;;;;3.10;0.50;;;;;;;;;;110098;1280;22139;-75
2023/02/18 02:10:15;;;;;;;2.60;0.50;;;;;;;;;;110058;1280;22135;-75
2023/02/18 02:13:06;;;;;;;2.40;0.50;;;;;;;;;;110102;1280;22208;-75
2023/02/18 02:15:47;;;;;;;2.70;0.40;;;;;;;;;;110214;1257;22040;-77
2023/02/18 02:18:34;;;;;;;3.10;0.40;;;;;;;;;;110012;1280;22052;-75
2023/02/18 02:21:26;;;;;;;2.60;0.40;;;;;;;;;;110150;1280;21993;-77
2023/02/18 02:24:15;;;;;;;4.10;0.40;;;;;;;;;;110170;1280;22098;-76
2023/02/18 02:27:15;;;;;;;2.20;0.30;;;;;;;;;;110276;1263;22848;-75
2023/02/18 02:30:15;;;;;;;1.50;0.30;;;;;;;;;;110163;1280;22213;-75
2023/02/18 02:40:09;;;;;;;2.10;0.30;;;;;;;;;;104143;1302;545482;-83
2023/02/18 02:42:46;;;;;;;3.30;0.30;;;;;;;;;;106294;1285;25376;-82
2023/02/18 02:45:27;;;;;;;3.30;0.30;;;;;;;;;;106421;1285;24270;-77
2023/02/18 02:48:02;;;;;;;2.50;0.30;;;;;;;;;;106390;1285;22573;-76
2023/02/18 02:50:37;;;;;;;2.90;0.30;;;;;;;;;;106222;1269;22542;-82
2023/02/18 02:53:16;;;;;;;2.40;0.30;;;;;;;;;;102304;1284;5395187;-83
2023/02/18 02:55:42;;;;;;;4.50;0.30;;;;;;;;;;106405;1284;24371;-77
2023/02/18 02:58:13;;;;;;;3.20;0.30;;;;;;;;;;106438;1284;22551;-75
2023/02/18 03:01:00;;;;;;;4.30;0.40;;;;;;;;;;106376;1283;22536;-82
2023/02/18 03:03:39;;;;;;;2.10;0.30;;;;;;;;;;106444;1283;22685;-79
2023/02/18 03:06:28;;;;;;;4.30;0.30;;;;;;;;;;106390;1283;22550;-75
2023/02/18 03:09:01;;;;;;;3.30;0.40;;;;;;;;;;106387;1283;24205;-76
2023/02/18 03:11:30;;;;;;;1.10;0.10;;;;;;;;;;106387;1267;22554;-79
2023/02/18 03:14:04;;;;;;;4.00;0.50;;;;;;;;;;106406;1284;25400;-78
2023/02/18 03:16:55;;;;;;;3.10;0.40;;;;;;;;;;106409;1284;25404;-76
2023/02/18 03:19:42;;;;;;;1.60;0.20;;;;;;;;;;106319;1260;23913;-78
2023/02/18 03:22:14;;;;;;;1.20;0.20;;;;;;;;;;106492;1283;25240;-80
2023/02/18 03:24:44;;;;;;;3.90;0.50;;;;;;;;;;106406;1283;22546;-78
2023/02/18 03:27:21;;;;;;;2.70;0.20;;;;;;;;;;106406;1283;24365;-74
2023/02/18 03:29:52;;;;;;;2.00;0.20;;;;;;;;;;106398;1260;24352;-78
2023/02/18 03:32:23;;;;;;;0.90;0.20;;;;;;;;;;106431;1283;22600;-78
2023/02/18 03:34:54;;;;;;;3.00;0.40;;;;;;;;;;106778;1268;25291;-77
2023/02/18 03:37:21;;;;;;;3.30;0.40;;;;;;;;;;106824;1278;22529;-79
2023/02/18 03:40:09;;;;;;;1.40;0.20;;;;;;;;;;106782;1257;22585;-77
2023/02/18 03:42:46;;;;;;;2.70;0.20;;;;;;;;;;106778;1278;22530;-83
2023/02/18 03:45:20;;;;;;;2.90;0.40;;;;;;;;;;106777;1278;22535;-80
2023/02/18 03:47:55;;;;;;;1.70;0.20;;;;;;;;;;106791;1275;25341;-79
2023/02/18 03:50:23;;;;;;;2.70;0.30;;;;;;;;;;106706;1277;24228;-77
2023/02/18 03:52:50;;;;;;;3.40;0.20;;;;;;;;;;106843;1277;22548;-82
2023/02/18 03:55:19;;;;;;;2.20;0.20;;;;;;;;;;106811;1277;22515;-76
2023/02/18 03:57:49;;;;;;;1.60;0.40;;;;;;;;;;106763;1277;25353;-77
2023/02/18 04:00:16;;;;;;;1.30;0.20;;;;;;;;;;106823;1254;22526;-76
2023/02/18 04:03:12;;;;;;;2.40;0.20;;;;;;;;;;106758;1277;22542;-80
2023/02/18 04:05:39;;;;;;;3.80;0.20;;;;;;;;;;106845;1277;24338;-79
2023/02/18 04:08:06;;;;;;;2.20;0.20;;;;;;;;;;106873;1277;25360;-78
2023/02/18 04:10:33;;;;;;;2.10;0.20;;;;;;;;;;106696;1257;25542;-83
2023/02/18 04:12:59;;;;;;;2.90;0.30;;;;;;;;;;106751;1279;25399;-80
2023/02/18 04:15:30;;;;;;;4.30;0.20;;;;;;;;;;106794;1279;23285;-77
2023/02/18 04:18:02;;;;;;;3.20;0.30;;;;;;;;;;106766;1279;22634;-78
2023/02/18 04:20:29;;;;;;;1.40;0.20;;;;;;;;;;106773;1278;22488;-76
2023/02/18 04:22:59;;;;;;;3.60;0.30;;;;;;;;;;106801;1260;23012;-82
2023/02/18 04:25:36;;;;;;;2.40;0.20;;;;;;;;;;106825;1278;24213;-76
2023/02/18 04:28:03;;;;;;;1.80;0.30;;;;;;;;;;106822;1277;25253;-79
2023/02/18 04:30:33;;;;;;;3.90;0.40;;;;;;;;;;106839;1277;25328;-78
2023/02/18 04:33:20;;;;;;;1.50;0.20;;;;;;;;;;106570;1263;25233;-82
2023/02/18 04:35:47;;;;;;;2.10;0.30;;;;;;;;;;106830;1277;22742;-83
2023/02/18 04:38:28;;;;;;;1.40;0.20;;;;;;;;;;106764;1277;22546;-80
2023/02/18 04:40:55;;;;;;;5.60;0.30;;;;;;;;;;106855;1277;26518;-75
2023/02/18 04:43:22;;;;;;;2.30;0.20;;;;;;;;;;106466;1265;25297;-80
2023/02/18 04:45:59;;;;;;;1.80;0.30;;;;;;;;;;106740;1279;23068;-83
2023/02/18 04:48:29;;;;;;;3.70;0.40;;;;;;;;;;106746;1279;22533;-76
2023/02/18 04:50:56;;;;;;;1.50;0.40;;;;;;;;;;106373;1278;22548;-76
2023/02/18 04:53:23;;;;;;;3.80;1.00;;;;;;;;;;106477;1278;22758;-81
2023/02/18 04:56:00;;;;;;;6.40;0.50;;;;;;;;;;106772;1278;22533;-82
2023/02/18 04:58:29;;;;;;;1.60;0.20;;;;;;;;;;106797;1278;22540;-77
2023/02/18 05:01:00;;;;;;;1.70;0.30;;;;;;;;;;106820;1278;22989;-75
2023/02/18 05:03:27;;;;;;;3.50;0.60;;;;;;;;;;106747;1262;22537;-77
2023/02/18 05:06:04;;;;;;;2.50;0.20;;;;;;;;;;106798;1279;22538;-78
2023/02/18 05:08:45;;;;;;;3.40;0.50;;;;;;;;;;106738;1279;23496;-83
2023/02/18 05:11:12;;;;;;;2.30;0.30;;;;;;;;;;106825;1278;22493;-81
2023/02/18 05:13:47;;;;;;;3.50;0.20;;;;;;;;;;106768;1262;24201;-83
2023/02/18 05:16:14;;;;;;;2.30;0.30;;;;;;;;;;106826;1278;22536;-81
2023/02/18 05:19:03;;;;;;;2.50;0.30;;;;;;;;;;106773;1278;25282;-83
2023/02/18 05:21:33;;;;;;;2.80;0.30;;;;;;;;;;106808;1278;24253;-77
2023/02/18 05:24:20;;;;;;;3.60;0.40;;;;;;;;;;106734;1278;23587;-77
2023/02/18 05:26:54;;;;;;;3.10;0.50;;;;;;;;;;106470;1279;25380;-79
2023/02/18 05:29:26;;;;;;;3.40;0.20;;;;;;;;;;106807;1279;25405;-78
2023/02/18 05:31:52;;;;;;;2.40;0.30;;;;;;;;;;106705;1277;22550;-76
2023/02/18 05:34:19;;;;;;;2.80;0.30;;;;;;;;;;106797;1260;22532;-77
2023/02/18 05:36:48;;;;;;;4.40;0.40;;;;;;;;;;106663;1277;25185;-75
2023/02/18 05:39:29;;;;;;;1.70;0.20;;;;;;;;;;106810;1277;24276;-77
2023/02/18 05:41:59;;;;;;;4.40;0.50;;;;;;;;;;106859;1275;25338;-75
2023/02/18 05:44:29;;;;;;;2.60;0.40;;;;;;;;;;106785;1259;24253;-78
2023/02/18 05:47:04;;;;;;;5.60;0.50;;;;;;;;;;106816;1278;26491;-78
2023/02/18 05:49:31;;;;;;;1.20;0.30;;;;;;;;;;106796;1278;22530;-79
2023/02/18 05:51:58;;;;;;;1.80;0.30;;;;;;;;;;106728;1278;25237;-77
2023/02/18 05:54:30;;;;;;;3.90;0.30;;;;;;;;;;106776;1261;25236;-83
2023/02/18 05:56:57;;;;;;;2.30;0.30;;;;;;;;;;106595;1277;24330;-76
2023/02/18 05:59:24;;;;;;;3.70;0.30;;;;;;;;;;106674;1277;22863;-78
2023/02/18 06:02:14;;;;;;;2.80;0.30;;;;;;;;;;106827;1277;25501;-73
2023/02/18 06:04:44;;;;;;;7.90;0.80;;;;;;;;;;106817;1260;24173;-79
2023/02/18 06:07:33;;;;;;;3.60;0.60;;;;;;;;;;106725;1278;25324;-78
2023/02/18 06:10:06;;;;;;;4.00;0.50;;;;;;;;;;106861;1278;25396;-75
2023/02/18 06:12:35;;;;;;;7.10;1.70;;;;;;;;;;106576;1272;22615;-80
2023/02/18 06:15:06;;;;;;;8.50;2.50;;;;;;;;;;106448;1277;24394;-81
2023/02/18 06:17:36;;;;;;;6.30;1.50;;;;;;;;;;106852;1277;22530;-81
2023/02/18 06:20:06;;;;;;;2.00;0.40;;;;;;;;;;106856;1277;22534;-82
2023/02/18 06:22:35;;;;;;;4.40;0.40;;;;;;;;;;106837;1277;25232;-79
2023/02/18 06:25:05;;;;;;;1.50;0.30;;;;;;;;;;106763;1260;22591;-81
2023/02/18 06:27:35;;;;;;;4.40;0.40;;;;;;;;;;106796;1278;22508;-80
2023/02/18 06:30:05;;;;;;;3.50;0.40;;;;;;;;;;106856;1278;25385;-79
2023/02/18 06:32:34;;;;;;;6.30;0.90;;;;;;;;;;106783;1278;22541;-82
2023/02/18 06:35:02;;;;;;;6.20;0.70;;;;;;;;;;106843;1277;22540;-83
2023/02/18 06:37:29;;;;;;;11.60;3.70;;;;;;;;;;106800;1277;22680;-80
2023/02/18 06:40:17;;;;;;;5.90;1.50;;;;;;;;;;106807;1277;23270;-81
2023/02/18 06:43:04;;;;;;;8.00;2.30;;;;;;;;;;106830;1277;24086;-78
2023/02/18 06:45:51;;;;;;;3.00;0.50;;;;;;;;;;106628;1263;24273;-81
2023/02/18 06:48:20;;;;;;;5.50;0.90;;;;;;;;;;106832;1278;22534;-82
2023/02/18 06:50:52;;;;;;;3.90;0.50;;;;;;;;;;107165;1274;22529;-77
2023/02/18 06:53:21;;;;;;;4.40;0.60;;;;;;;;;;106955;1274;24183;-79
2023/02/18 06:55:50;;;;;;;6.60;0.70;;;;;;;;;;107182;1263;25377;-79
2023/02/18 06:58:36;;;;;;;6.00;0.50;;;;;;;;;;107191;1273;25281;-75
2023/02/18 07:01:06;;;;;;;5.70;0.50;;;;;;;;;;107080;1273;25281;-80
2023/02/18 07:03:36;;;;;;;5.10;0.50;;;;;;;;;;106978;1273;24272;-81
2023/02/18 07:06:26;;;;;;;4.70;0.60;;;;;;;;;;107197;1257;22984;-80
2023/02/18 07:08:53;;;;;;;5.20;0.60;;;;;;;;;;107204;1273;25452;-79
2023/02/18 07:11:19;;;;;;;9.30;0.80;;;;;;;;;;107196;1273;22527;-80
2023/02/18 07:13:46;;;;;;;16.60;2.40;;;;;;;;;;106987;1273;24187;-76
2023/02/18 07:16:33;;;;;;;12.00;0.90;;;;;;;;;;106953;1259;22529;-81
2023/02/18 07:19:03;;;;;;;4.60;0.80;;;;;;;;;;107010;1274;24235;-79
2023/02/18 07:21:33;;;;;;;8.70;0.80;;;;;;;;;;107158;1274;24244;-78
2023/02/18 07:24:20;;;;;;;5.20;0.60;;;;;;;;;;107071;1274;22546;-79
2023/02/18 07:26:47;;;;;;;7.00;0.80;;;;;;;;;;106933;1262;24380;-76
2023/02/18 07:29:13;;;;;;;5.80;0.70;;;;;;;;;;106727;1273;22714;-76
2023/02/18 07:31:40;;;;;;;5.90;0.80;;;;;;;;;;106917;1273;22533;-79
2023/02/18 07:34:07;;;;;;;9.40;1.00;;;;;;;;;;107145;1273;22526;-80
2023/02/18 07:36:34;;;;;;;7.30;0.80;;;;;;;;;;107006;1274;24214;-82
2023/02/18 07:39:01;;;;;;;8.30;1.20;;;;;;;;;;107126;1274;22535;-81
2023/02/18 07:41:28;;;;;;;10.30;1.30;;;;;;;;;;106918;1274;22524;-79
2023/02/18 07:43:58;;;;;;;11.90;1.40;;;;;;;;;;107153;1274;22504;-77
2023/02/18 07:46:28;;;;;;;6.70;1.00;;;;;;;;;;107193;1256;22526;-77
2023/02/18 07:48:58;;;;;;;6.80;0.90;;;;;;;;;;107201;1273;22605;-80
2023/02/18 07:51:25;;;;;;;5.70;0.90;;;;;;;;;;107006;1273;22540;-75
2023/02/18 07:53:54;;;;;;;8.10;1.10;;;;;;;;;;106883;1273;23400;-77
2023/02/18 07:56:21;;;;;;;8.90;1.40;;;;;;;;;;106877;1256;22539;-75
2023/02/18 07:58:48;;;;;;;8.20;1.10;;;;;;;;;;106898;1274;25217;-75
2023/02/18 08:01:17;;;;;;;10.80;1.30;;;;;;;;;;106903;1275;25673;-82
2023/02/18 08:03:44;;;;;;;19.40;2.00;;;;;;;;;;106930;1274;22526;-82
2023/02/18 08:06:20;;;;;;;9.40;1.00;;;;;;;;;;107080;1256;25965;-81
2023/02/18 08:08:46;;;;;;;4.90;0.90;;;;;;;;;;106951;1274;22531;-81
2023/02/18 08:11:21;;;;;;;10.00;1.10;;;;;;;;;;106857;1275;24206;-79
2023/02/18 08:13:48;;;;;;;10.30;1.20;;;;;;;;;;106618;1275;25277;-75
2023/02/18 08:16:19;;;;;;;13.50;1.40;;;;;;;;;;106931;1256;25390;-75
2023/02/18 08:18:46;;;;;;;8.30;1.20;;;;;;;;;;106649;1274;23876;-74
2023/02/18 08:21:14;;;;;;;8.90;1.10;;;;;;;;;;107016;1274;22528;-76
2023/02/18 08:23:41;;;;;;;12.10;1.10;;;;;;;;;;106826;1274;26484;-74
2023/02/18 08:26:07;;;;;;;12.10;0.90;;;;;;;;;;106996;1257;23354;-76
2023/02/18 08:28:44;;;;;;;5.70;0.70;;;;;;;;;;107006;1272;25415;-76
2023/02/18 08:31:23;;;;;;;11.00;0.80;;;;;;;;;;107225;1266;25230;-76
2023/02/18 08:34:04;;;;;;;;;;;;;;;;;;;;;
2023/02/18 08:36:31;;;;;;;11.90;1.00;;;;;;;;;;107208;1256;22540;-75
2023/02/18 08:38:58;;;;;;;7.40;1.20;;;;;;;;;;107120;1266;25325;-74
2023/02/18 08:41:26;;;;;;;5.90;0.60;;;;;;;;;;106862;1274;22678;-76
2023/02/18 08:43:53;;;;;;;9.20;1.00;;;;;;;;;;106894;1274;24190;-74
2023/02/18 08:46:19;;;;;;;9.40;1.10;;;;;;;;;;107128;1263;22539;-81
2023/02/18 08:49:06;;;;;;;5.70;0.90;;;;;;;;;;106983;1274;23129;-81
2023/02/18 08:51:33;;;;;;;5.70;0.80;;;;;;;;;;107094;1267;22541;-76
2023/02/18 08:54:01;;;;;;;6.20;0.80;;;;;;;;;;106960;1273;25552;-76
2023/02/18 08:56:28;;;;;;;6.80;0.90;;;;;;;;;;107169;1260;23298;-75
2023/02/18 08:59:05;;;;;;;5.70;1.00;;;;;;;;;;106995;1273;25208;-77
2023/02/18 09:01:32;;;;;;;7.40;1.00;;;;;;;;;;106973;1267;22625;-73
2023/02/18 09:04:08;;;;;;;8.60;1.50;;;;;;;;;;107144;1273;23425;-75
2023/02/18 09:06:53;;;;;;;9.30;1.40;;;;;;;;;;106986;1251;22533;-77
2023/02/18 09:09:23;;;;;;;8.90;1.10;;;;;;;;;;106940;1267;22543;-75
2023/02/18 09:11:53;;;;;;;8.60;1.00;;;;;;;;;;107223;1271;24234;-78
2023/02/18 09:14:21;;;;;;;6.10;0.90;;;;;;;;;;106982;1269;22534;-75
2023/02/18 09:16:51;;;;;;;6.10;1.00;;;;;;;;;;106934;1258;25452;-78
2023/02/18 09:19:20;;;;;;;7.10;0.90;;;;;;;;;;106958;1270;24202;-76
2023/02/18 09:21:53;;;;;;;5.70;1.00;;;;;;;;;;107193;1267;22543;-77
2023/02/18 09:24:23;;;;;;;5.90;1.20;;;;;;;;;;107167;1257;22519;-75
2023/02/18 09:26:50;;;;;;;4.50;0.70;;;;;;;;;;107212;1267;24197;-77
2023/02/18 09:29:18;;;;;;;9.10;1.30;;;;;;;;;;106957;1265;23914;-77
2023/02/18 09:32:11;;;;;;;8.30;1.20;;;;;;;;;;106991;1267;25341;-77
2023/02/18 09:34:50;;;;;;;;;;;;;;;;;;;;;
2023/02/18 09:37:45;;;;;;;9.20;1.40;;;;;;;;;;107056;1270;22542;-77
2023/02/18 09:40:26;;;;;;;8.50;2.10;;;;;;;;;;106819;1274;24473;-77
2023/02/18 09:43:26;;;;;;;7.10;1.40;;;;;;;;;;107068;1269;24256;-74
2023/02/18 09:46:12;;;;;;;8.00;1.50;;;;;;;;;;107154;1267;22549;-75
2023/02/18 09:48:43;;;;;;;8.40;1.50;;;;;;;;;;107013;1266;22531;-81
2023/02/18 09:51:12;;;;;;;9.60;1.40;;;;;;;;;;106887;1275;25322;-77
2023/02/18 09:53:40;;;;;;;13.00;1.60;;;;;;;;;;107056;1275;22534;-76
2023/02/18 09:56:14;;;;;;;7.30;1.30;;;;;;;;;;107043;1269;24274;-75
2023/02/18 09:58:42;;;;;;;8.80;1.30;;;;;;;;;;107168;1257;22538;-78
2023/02/18 10:01:19;;;;;;;6.60;1.30;;;;;;;;;;107153;1271;22650;-75
2023/02/18 10:03:58;;;;;;;11.30;1.90;;;;;;;;;;106902;1275;25214;-79
2023/02/18 10:06:28;;;;;;;7.80;1.50;;;;;;;;;;107136;1275;24263;-76
2023/02/18 10:08:58;;;;;;;7.20;1.40;;;;;;;;;;106901;1267;24235;-80
2023/02/18 10:11:34;;;;;;;8.50;1.60;;;;;;;;;;107059;1274;24220;-75
2023/02/18 10:14:21;;;;;;;10.00;1.70;;;;;;;;;;106949;1274;25294;-78
2023/02/18 10:16:49;;;;;;;9.40;1.50;;;;;;;;;;107164;1274;25234;-75
2023/02/18 10:19:21;;;;;;;9.00;1.50;;;;;;;;;;107139;1254;22634;-79
2023/02/18 10:21:52;;;;;;;8.90;1.50;;;;;;;;;;106913;1274;24895;-75
2023/02/18 10:24:28;;;;;;;9.80;1.70;;;;;;;;;;107018;1274;22529;-80
2023/02/18 10:27:04;;;;;;;9.90;1.50;;;;;;;;;;107007;1274;22534;-81
2023/02/18 10:29:36;;;;;;;7.30;1.50;;;;;;;;;;107083;1266;24249;-81
2023/02/18 10:32:09;;;;;;;8.00;1.10;;;;;;;;;;107136;1275;22534;-79
2023/02/18 10:34:41;;;;;;;7.60;1.30;;;;;;;;;;107141;1275;24213;-76
2023/02/18 10:37:33;;;;;;;8.30;1.60;;;;;;;;;;107000;1275;22541;-81
2023/02/18 10:40:22;;;;;;;34.00;4.50;;;;;;;;;;107066;1265;22522;-78
2023/02/18 10:42:55;;;;;;;7.90;1.60;;;;;;;;;;107181;1275;22983;-79
2023/02/18 10:45:43;;;;;;;8.20;1.80;;;;;;;;;;107092;1275;22543;-77
2023/02/18 10:48:29;;;;;;;7.10;1.50;;;;;;;;;;107140;1275;25343;-77
2023/02/18 10:51:30;;;;;;;6.30;1.00;;;;;;;;;;107072;1270;25290;-77
2023/02/18 10:54:48;;;;;;;8.70;1.80;;;;;;;;;;104060;1285;545337;-78
2023/02/18 10:57:26;;;;;;;8.20;1.50;;;;;;;;;;105852;1285;25472;-77
2023/02/18 10:59:55;;;;;;;8.10;1.60;;;;;;;;;;105912;1281;22548;-78
2023/02/18 11:02:24;;;;;;;8.60;1.80;;;;;;;;;;105849;1291;22666;-76
2023/02/18 11:04:51;;;;;;;12.70;2.30;;;;;;;;;;105635;1282;25635;-76
2023/02/18 11:07:29;;;;;;;8.60;2.20;;;;;;;;;;102090;1287;5232211;-78
2023/02/18 11:10:20;;;;;;;8.30;1.90;;;;;;;;;;106244;1282;22606;-77
2023/02/18 11:13:35;;;;;;;9.60;1.90;;;;;;;;;;106753;1278;22553;-76
2023/02/18 11:16:19;;;;;;;10.10;2.40;;;;;;;;;;106131;1281;24824;-76
2023/02/18 11:18:57;;;;;;;;;;;;;;;;;;;;;
2023/02/18 11:21:29;;;;;;;15.00;3.90;;;;;;;;;;106159;1282;23201;-77
2023/02/18 11:24:05;;;;;;;11.30;3.50;;;;;;;;;;106660;1266;22566;-76
2023/02/18 11:26:36;;;;;;;9.30;3.00;;;;;;;;;;106042;1268;25869;-79
2023/02/18 11:29:06;;;;;;;12.00;4.00;;;;;;;;;;106365;1285;25296;-81
2023/02/18 11:32:02;;;;;;;10.80;3.10;;;;;;;;;;106100;1282;25476;-78
2023/02/18 11:34:30;;;;;;;12.90;3.50;;;;;;;;;;105923;1266;22508;-82
2023/02/18 11:37:11;;;;;;;14.20;4.10;;;;;;;;;;105943;1289;25366;-76
2023/02/18 11:39:45;;;;;;;9.40;3.20;;;;;;;;;;106095;1289;22561;-75
2023/02/18 11:42:33;;;;;;;11.10;3.40;;;;;;;;;;105968;1287;22559;-78
2023/02/18 11:45:00;;;;;;;14.20;4.80;;;;;;;;;;105957;1271;22799;-76
2023/02/18 11:47:31;;;;;;;14.60;6.20;;;;;;;;;;106029;1289;22552;-77
2023/02/18 11:50:19;;;;;;;14.90;6.70;;;;;;;;;;105763;1282;22622;-77
2023/02/18 11:52:56;;;;;;;20.50;7.30;;;;;;;;;;106018;1289;25361;-77
2023/02/18 11:55:36;;;;;;;15.40;6.00;;;;;;;;;;105863;1271;25375;-76
2023/02/18 11:58:04;;;;;;;15.90;5.40;;;;;;;;;;105786;1290;24278;-79
2023/02/18 12:00:53;;;;;;;15.40;5.90;;;;;;;;;;105889;1290;25401;-77
2023/02/18 12:03:20;;;;;;;17.70;6.40;;;;;;;;;;105940;1290;22630;-77
2023/02/18 12:05:59;;;;;;;20.70;8.40;;;;;;;;;;105904;1272;23532;-77
2023/02/18 12:08:30;;;;;;;24.00;8.30;;;;;;;;;;105959;1282;24569;-76
2023/02/18 12:11:06;;;;;;;31.80;12.40;;;;;;;;;;105939;1287;25348;-77
2023/02/18 12:13:53;;;;;;;33.80;14.00;;;;;;;;;;105882;1287;22564;-78
2023/02/18 12:16:26;;;;;;;34.20;13.60;;;;;;;;;;105875;1272;22556;-76
2023/02/18 12:19:03;;;;;;;32.00;12.70;;;;;;;;;;105933;1290;23319;-78
2023/02/18 12:21:50;;;;;;;25.00;11.70;;;;;;;;;;106030;1290;22680;-76
2023/02/18 12:24:40;;;;;;;21.90;10.20;;;;;;;;;;106009;1283;22580;-82
2023/02/18 12:27:19;;;;;;;22.80;9.00;;;;;;;;;;105817;1274;24183;-78
2023/02/18 12:30:57;;;;;;;21.90;10.00;;;;;;;;;;105986;1287;22665;-77
2023/02/18 12:33:36;;;;;;;20.00;10.10;;;;;;;;;;106002;1284;24277;-76
2023/02/18 12:36:10;;;;;;;22.10;8.90;;;;;;;;;;105922;1290;22626;-79
2023/02/18 12:38:56;;;;;;;18.00;8.40;;;;;;;;;;105960;1267;24327;-78
2023/02/18 12:41:41;;;;;;;18.40;7.40;;;;;;;;;;105903;1289;22563;-77
2023/02/18 12:44:26;;;;;;;18.30;6.30;;;;;;;;;;106133;1289;24258;-77
2023/02/18 12:47:14;;;;;;;16.50;6.60;;;;;;;;;;105858;1275;22550;-82
2023/02/18 12:49:59;;;;;;;21.00;8.90;;;;;;;;;;105991;1282;22542;-77
2023/02/18 12:52:46;;;;;;;21.70;10.50;;;;;;;;;;106415;1275;25420;-81
2023/02/18 12:55:16;;;;;;;25.30;11.10;;;;;;;;;;106500;1277;22578;-77
2023/02/18 12:57:54;;;;;;;24.10;11.30;;;;;;;;;;106646;1266;24234;-77
2023/02/18 13:01:00;;;;;;;24.10;11.90;;;;;;;;;;106715;1276;22551;-78
2023/02/18 13:03:33;;;;;;;25.80;12.50;;;;;;;;;;106891;1275;23255;-77
2023/02/18 13:06:13;;;;;;;27.60;14.10;;;;;;;;;;106484;1279;24330;-76
2023/02/18 13:08:46;;;;;;;32.10;15.10;;;;;;;;;;106290;1265;25351;-76
2023/02/18 13:11:13;;;;;;;24.10;12.10;;;;;;;;;;106507;1275;23135;-76
2023/02/18 13:13:51;;;;;;;36.00;17.30;;;;;;;;;;106454;1276;22555;-77
2023/02/18 13:16:25;;;;;;;34.20;17.50;;;;;;;;;;106553;1276;24334;-77
2023/02/18 13:19:15;;;;;;;43.10;19.40;;;;;;;;;;106415;1267;22554;-79
2023/02/18 13:21:45;;;;;;;34.80;15.40;;;;;;;;;;106473;1281;22518;-77
2023/02/18 13:24:16;;;;;;;29.20;13.30;;;;;;;;;;106558;1279;22539;-78
2023/02/18 13:26:45;;;;;;;22.60;8.90;;;;;;;;;;106485;1278;22555;-80
2023/02/18 13:29:42;;;;;;;15.00;6.40;;;;;;;;;;106494;1281;22539;-77
2023/02/18 13:32:35;;;;;;;9.90;3.60;;;;;;;;;;106471;1276;22539;-83
2023/02/18 13:35:01;;;;;;;9.00;2.70;;;;;;;;;;106369;1277;24297;-75
2023/02/18 13:37:44;;;;;;;8.40;2.40;;;;;;;;;;106167;1275;23152;-81
2023/02/18 13:40:18;;;;;;;5.30;1.50;;;;;;;;;;106360;1275;22539;-78
2023/02/18 13:43:05;;;;;;;8.00;3.10;;;;;;;;;;106672;1277;22554;-79
2023/02/18 13:45:32;;;;;;;8.50;3.00;;;;;;;;;;106539;1281;25265;-76
2023/02/18 13:47:59;;;;;;;8.70;2.20;;;;;;;;;;106540;1264;21775;-81
2023/02/18 13:50:30;;;;;;;7.00;2.00;;;;;;;;;;106489;1275;22539;-76
2023/02/18 13:53:00;;;;;;;10.30;2.90;;;;;;;;;;106435;1283;22542;-81
2023/02/18 13:55:39;;;;;;;8.60;2.30;;;;;;;;;;106410;1276;23294;-75
2023/02/18 13:58:17;;;;;;;6.80;1.80;;;;;;;;;;106394;1275;25484;-76
2023/02/18 14:00:59;;;;;;;7.40;2.90;;;;;;;;;;106361;1283;22974;-80
2023/02/18 14:03:52;;;;;;;8.30;3.30;;;;;;;;;;106376;1283;22550;-82
2023/02/18 14:06:20;;;;;;;13.60;4.90;;;;;;;;;;106452;1278;23917;-76
2023/02/18 14:08:48;;;;;;;10.30;3.00;;;;;;;;;;106315;1264;22559;-77
2023/02/18 14:11:18;;;;;;;9.60;2.30;;;;;;;;;;106451;1279;25337;-80
2023/02/18 14:14:12;;;;;;;8.20;2.40;;;;;;;;;;106446;1276;22502;-77
2023/02/18 14:16:58;;;;;;;7.50;2.30;;;;;;;;;;106388;1281;25349;-79
2023/02/18 14:19:29;;;;;;;4.70;1.70;;;;;;;;;;106394;1283;23747;-76
2023/02/18 14:22:15;;;;;;;5.20;1.50;;;;;;;;;;106393;1283;24882;-79
2023/02/18 14:24:45;;;;;;;5.40;1.40;;;;;;;;;;106418;1283;22553;-77
2023/02/18 14:27:16;;;;;;;6.00;2.10;;;;;;;;;;106269;1283;22744;-77
2023/02/18 14:30:00;;;;;;;14.10;5.00;;;;;;;;;;106250;1265;22617;-77
2023/02/18 14:32:37;;;;;;;7.30;2.60;;;;;;;;;;106582;1283;26414;-76
2023/02/18 14:35:20;;;;;;;4.70;1.80;;;;;;;;;;106459;1271;23137;-76
2023/02/18 14:38:08;;;;;;;4.00;1.10;;;;;;;;;;106429;1281;22541;-76
2023/02/18 14:40:45;;;;;;;4.40;1.40;;;;;;;;;;106381;1277;25203;-75
2023/02/18 14:43:18;;;;;;;18.30;4.40;;;;;;;;;;106415;1278;24217;-76
2023/02/18 14:46:04;;;;;;;10.10;2.40;;;;;;;;;;106435;1283;22499;-76
2023/02/18 14:48:49;;;;;;;6.80;1.60;;;;;;;;;;106398;1261;22560;-75
2023/02/18 14:51:23;;;;;;;5.40;1.10;;;;;;;;;;106300;1267;24252;-76
2023/02/18 14:54:10;;;;;;;7.40;1.60;;;;;;;;;;106452;1283;25367;-78
2023/02/18 14:56:48;;;;;;;;;;;;;;;;;;;;;
2023/02/18 14:59:40;;;;;;;7.50;1.20;;;;;;;;;;106411;1266;22543;-82
2023/02/18 15:02:21;;;;;;;6.30;1.40;;;;;;;;;;106422;1283;23000;-77
2023/02/18 15:04:49;;;;;;;7.90;1.30;;;;;;;;;;106611;1284;22562;-77
2023/02/18 15:07:20;;;;;;;7.10;1.10;;;;;;;;;;106622;1278;22499;-75
2023/02/18 15:09:49;;;;;;;6.20;1.50;;;;;;;;;;107713;1263;22553;-75
2023/02/18 15:13:05;;;;;;;5.90;1.50;;;;;;;;;;106696;1278;22557;-81
2023/02/18 15:15:19;;;;;;;7.30;1.90;;;;;;;;;;106360;1281;22997;-80
2023/02/18 15:17:49;;;;;;;7.00;1.50;;;;;;;;;;106384;1281;26596;-79
2023/02/18 15:20:16;;;;;;;9.30;2.10;;;;;;;;;;106516;1261;25557;-76
2023/02/18 15:23:06;;;;;;;10.30;2.90;;;;;;;;;;103686;1298;544935;-80